Time;durP1;ratioP1;P1;durP2;ratioP2;P2;SDS_P1;SDS_P2;PMS_P1;PMS_P2;Temp;Humidity;BMP_temperature;BMP_pressure;BME280_temperature;BME280_humidity;BME280_pressure;Samples;Min_cycle;Max_cycle;Signal;HPM_P1;HPM_P2
2022/10/04 19:11:41;;;;;;;;;;;;;;;57.83;4.87;101111.41;4882503;29;19955;-63
2022/10/04 19:14:27;;;;;;;;;;;;;;;59.39;4.10;101109.16;4881242;29;20421;-63
2022/10/04 19:17:12;;;;;;;;;;;;;;;60.55;2.86;101104.97;4881466;29;19977;-63
2022/10/04 19:23:50;;;;;;;;;;;;;;;62.60;2.51;101105.19;5062076;28;19920;-62
2022/10/04 19:26:31;;;;;;;;;;;;;;;68.00;0.25;101106.81;5065934;28;20072;-63
2022/10/04 19:29:17;;;;;;;;;;;;;;;67.79;0.00;101104.28;5065105;28;20013;-63
2022/10/04 19:31:43;;;;;;;;;;;;;;;68.40;0.00;101095.31;5066302;28;19946;-63
2022/10/04 19:34:27;;;;;;;;;;;;;;;70.81;0.00;101091.97;5066733;28;19921;-63
2022/10/04 19:36:53;;;;;;;;;;;;;;;71.35;0.00;101080.41;5066623;28;19927;-63
2022/10/04 19:39:27;;;;;;;;;;;;;;;73.42;0.00;101078.91;5066620;28;19940;-63
2022/10/04 19:41:53;;;;;;;;;;;;;;;75.38;0.00;101054.31;5066213;28;20392;-63
2022/10/04 19:44:23;;;;;;;;;;;;;;;73.80;0.00;101049.06;5066654;28;19916;-61
2022/10/04 19:46:59;;;;;;;;;;;;;;;70.93;0.00;101040.88;5064493;28;20007;-61
2022/10/04 19:49:36;;;;;;;;;;;;;;;74.43;0.00;101040.66;5064502;28;19929;-61
2022/10/04 19:52:26;;;;;;;;;;;;;;;74.07;0.00;101032.47;5064120;28;19917;-61
2022/10/04 19:54:57;;;;;;;;;;;;;;;72.49;0.00;101030.09;5056582;28;19927;-62
2022/10/04 19:57:30;;;;;;;;;;;;;;;74.73;0.00;101025.47;5064483;28;20270;-62
2022/10/04 19:59:56;;;;;;;;;;;;;;;74.97;0.00;101029.63;5064529;28;19917;-62
2022/10/04 20:02:22;;;;;;;;;;;;;;;74.18;0.00;101036.44;5066207;28;20049;-62
2022/10/04 20:04:50;;;;;;;;;;;;;;;73.81;0.00;101035.63;5066282;28;19921;-62
2022/10/04 20:07:22;;;;;;;;;;;;;;;75.12;0.00;101024.63;5066332;28;20009;-62
2022/10/04 20:09:54;;;;;;;;;;;;;;;74.98;0.00;101018.38;5066091;28;19921;-62
2022/10/04 20:12:30;;;;;;;;;;;;;;;74.64;0.00;101004.31;5064923;28;20388;-62
2022/10/04 20:15:15;;;;;;;;;;;;;;;73.74;0.00;101007.75;5066199;28;20446;-62
2022/10/04 20:17:42;;;;;;;;;;;;;;;74.80;0.00;101003.84;5065959;28;20011;-62
2022/10/04 20:20:08;;;;;;;;;;;;;;;75.97;0.00;101004.06;5066180;28;19916;-62
2022/10/04 20:22:54;;;;;;;;;;;;;;;76.08;0.00;100989.88;5065676;27;19921;-62
2022/10/04 20:25:39;;;;;;;;;;;;;;;75.46;0.00;100988.38;5066084;28;19921;-62
2022/10/04 20:28:06;;;;;;;;;;;;;;;71.25;0.00;100981.53;5066021;28;20274;-62
2022/10/04 20:30:50;;;;;;;;;;;;;;;74.35;0.00;100987.28;5066357;28;20423;-62
2022/10/04 20:33:38;;;;;;;;;;;;;;;69.12;0.00;100972.13;5062700;28;19947;-62
2022/10/04 20:36:05;;;;;;;;;;;;;;;71.65;0.00;100966.34;5052719;28;19920;-62
2022/10/04 20:38:51;;;;;;;;;;;;;;;68.66;0.00;100964.19;5087182;27;19957;-62
2022/10/04 20:44:42;;;;;;;;;;;;;;;75.61;0.00;100958.50;5032111;28;19925;-62
2022/10/04 20:47:27;;;;;;;;;;;;;;;67.86;0.00;100945.69;5032588;28;20040;-62
2022/10/04 20:49:56;;;;;;;;;;;;;;;68.86;0.00;100938.28;5032498;28;19922;-62
2022/10/04 20:52:27;;;;;;;;;;;;;;;74.84;0.00;100943.88;5061093;27;20378;-62
2022/10/04 20:54:55;;;;;;;;;;;;;;;77.72;0.00;100942.13;5123979;27;19927;-62
2022/10/04 20:57:22;;;;;;;;;;;;;;;73.85;0.00;100942.06;5053906;27;20301;-62
2022/10/04 20:59:50;;;;;;;;;;;;;;;71.41;0.00;100919.31;5051596;28;19924;-62
2022/10/04 21:02:17;;;;;;;;;;;;;;;75.84;0.00;100924.22;5051060;28;19917;-62
2022/10/04 21:04:46;;;;;;;;;;;;;;;70.64;0.00;100916.81;5049697;28;20074;-61
2022/10/04 21:07:22;;;;;;;;;;;;;;;67.75;0.00;100916.22;5051693;28;19942;-61
2022/10/04 21:09:49;;;;;;;;;;;;;;;71.55;0.00;100912.28;5050043;27;19921;-62
2022/10/04 21:12:27;;;;;;;;;;;;;;;69.31;0.00;100905.16;5068505;27;19936;-61
2022/10/04 21:15:14;;;;;;;;;;;;;;;69.34;0.00;100903.81;5037106;28;20296;-63
2022/10/04 21:18:05;;;;;;;;;;;;;;;76.42;0.00;100902.25;5033738;28;19939;-63
2022/10/04 21:20:48;;;;;;;;;;;;;;;76.25;0.00;100897.56;5042265;28;19929;-62
2022/10/04 21:23:28;;;;;;;;;;;;;;;73.52;0.00;100893.44;5047779;27;19924;-63
2022/10/04 21:26:13;;;;;;;;;;;;;;;75.55;0.00;100887.81;5047957;28;20032;-64
2022/10/04 21:28:41;;;;;;;;;;;;;;;76.10;0.00;100885.41;5045071;28;19927;-63
2022/10/04 21:31:07;;;;;;;;;;;;;;;75.47;0.00;100881.75;5043538;27;20369;-64
2022/10/04 21:33:37;;;;;;;;;;;;;;;71.19;0.00;100870.88;5041737;27;20305;-64
2022/10/04 21:36:05;;;;;;;;;;;;;;;75.96;0.00;100866.47;5046643;28;19971;-63
2022/10/04 21:38:35;;;;;;;;;;;;;;;76.19;0.00;100879.50;5043518;28;19920;-64
2022/10/04 21:41:04;;;;;;;;;;;;;;;73.69;0.00;100864.59;5044281;28;19963;-64
2022/10/04 21:43:32;;;;;;;;;;;;;;;77.33;0.00;100868.19;5047836;28;19921;-63
2022/10/04 21:46:00;;;;;;;;;;;;;;;75.89;0.00;100858.88;5046229;28;19925;-64
2022/10/04 21:48:27;;;;;;;;;;;;;;;77.15;0.00;100866.59;5041682;28;19925;-63
2022/10/04 21:50:53;;;;;;;;;;;;;;;75.00;0.00;100862.34;5040492;28;20011;-64
2022/10/04 21:53:22;;;;;;;;;;;;;;;74.59;0.00;100845.97;5043931;27;19925;-64
2022/10/04 21:55:52;;;;;;;;;;;;;;;69.10;0.00;100838.13;5040201;28;19928;-63
2022/10/04 21:58:20;;;;;;;;;;;;;;;71.55;0.00;100843.59;5040978;27;19921;-64
2022/10/04 22:00:46;;;;;;;;;;;;;;;74.58;0.00;100845.22;5041324;27;19946;-63
2022/10/04 22:03:12;;;;;;;;;;;;;;;74.52;0.00;100848.06;5042027;27;19925;-64
2022/10/04 22:05:39;;;;;;;;;;;;;;;72.92;0.00;100837.50;5042296;27;20385;-63
2022/10/04 22:08:05;;;;;;;;;;;;;;;75.67;0.00;100838.38;5040170;27;19958;-64
2022/10/04 22:10:32;;;;;;;;;;;;;;;72.29;0.00;100835.16;5039768;27;19927;-63
2022/10/04 22:12:59;;;;;;;;;;;;;;;76.42;0.00;100836.81;5037673;27;19917;-63
2022/10/04 22:15:26;;;;;;;;;;;;;;;76.20;0.00;100835.91;5040690;27;20188;-64
2022/10/04 22:17:52;;;;;;;;;;;;;;;77.12;0.00;100831.97;5038416;27;19925;-63
2022/10/04 22:20:19;;;;;;;;;;;;;;;76.95;0.00;100830.38;5039549;27;19970;-62
2022/10/04 22:22:45;;;;;;;;;;;;;;;67.00;0.00;100819.16;5035664;27;19925;-62
2022/10/04 22:25:19;;;;;;;;;;;;;;;68.31;0.00;100814.03;5037426;27;19927;-62
2022/10/04 22:27:46;;;;;;;;;;;;;;;70.60;0.00;100815.28;5042473;27;19925;-62
2022/10/04 22:30:20;;;;;;;;;;;;;;;70.18;0.00;100815.34;5041931;27;20542;-62
2022/10/04 22:32:47;;;;;;;;;;;;;;;66.99;0.00;100816.88;5046232;27;19929;-61
2022/10/04 22:35:15;;;;;;;;;;;;;;;64.94;1.00;100815.53;5048588;27;20020;-62
2022/10/04 22:37:42;;;;;;;;;;;;;;;66.30;0.54;100813.38;5049960;27;19925;-62
2022/10/04 22:40:16;;;;;;;;;;;;;;;69.11;0.00;100812.84;5047582;27;20377;-61
2022/10/04 22:42:43;;;;;;;;;;;;;;;64.70;1.03;100815.66;5044690;27;19928;-62
2022/10/04 22:45:20;;;;;;;;;;;;;;;62.86;1.78;100813.69;5049368;27;20024;-61
2022/10/04 22:47:47;;;;;;;;;;;;;;;62.28;1.76;100814.91;5045187;27;20377;-61
2022/10/04 22:50:23;;;;;;;;;;;;;;;62.16;1.79;100829.59;5048788;27;20083;-61
2022/10/04 22:52:50;;;;;;;;;;;;;;;67.22;0.00;100828.38;5047432;27;19939;-62
2022/10/04 22:55:17;;;;;;;;;;;;;;;68.77;0.00;100817.41;5046736;27;20022;-61
2022/10/04 22:57:43;;;;;;;;;;;;;;;69.13;0.00;100827.81;5043513;27;20007;-61
2022/10/04 23:00:10;;;;;;;;;;;;;;;69.26;0.00;100817.16;5051047;27;19924;-62
2022/10/04 23:02:37;;;;;;;;;;;;;;;70.75;0.00;100825.44;5046801;27;20011;-61
2022/10/04 23:05:14;;;;;;;;;;;;;;;71.84;0.00;100824.25;5042784;27;19920;-63
2022/10/04 23:07:41;;;;;;;;;;;;;;;71.10;0.00;100828.06;5043496;27;19921;-62
2022/10/04 23:10:08;;;;;;;;;;;;;;;70.44;0.00;100817.72;5049482;27;19943;-63
2022/10/04 23:12:34;;;;;;;;;;;;;;;66.99;0.00;100805.00;5049436;27;20011;-63
2022/10/04 23:15:01;;;;;;;;;;;;;;;64.05;1.05;100805.06;5042562;27;19925;-64
2022/10/04 23:17:28;;;;;;;;;;;;;;;63.78;1.27;100799.72;5045993;27;19921;-63
2022/10/04 23:19:56;;;;;;;;;;;;;;;69.06;0.00;100799.28;5046333;27;19925;-62
2022/10/04 23:22:26;;;;;;;;;;;;;;;71.76;0.00;100813.59;5044473;27;19944;-63
2022/10/04 23:24:53;;;;;;;;;;;;;;;67.82;0.00;100799.97;5046238;27;20353;-63
2022/10/04 23:27:19;;;;;;;;;;;;;;;68.78;0.00;100798.16;5048185;27;19923;-62
2022/10/04 23:29:46;;;;;;;;;;;;;;;63.87;0.55;100789.94;5045945;27;19951;-62
2022/10/04 23:32:14;;;;;;;;;;;;;;;62.69;1.51;100789.03;5045737;27;19917;-62
2022/10/04 23:34:43;;;;;;;;;;;;;;;64.27;0.76;100791.63;5046554;27;19925;-62
2022/10/04 23:37:14;;;;;;;;;;;;;;;62.71;1.11;100786.22;5048625;27;19916;-62
2022/10/04 23:39:40;;;;;;;;;;;;;;;66.10;0.00;100784.22;5040963;27;19939;-61
2022/10/04 23:42:12;;;;;;;;;;;;;;;67.57;0.00;100797.34;5043689;27;19921;-63
2022/10/04 23:44:39;;;;;;;;;;;;;;;67.37;0.00;100792.00;5045342;27;19927;-63
2022/10/04 23:47:10;;;;;;;;;;;;;;;69.82;0.00;100796.16;5050571;27;20263;-63
2022/10/04 23:49:36;;;;;;;;;;;;;;;69.91;0.00;100798.75;5044024;27;20054;-63
2022/10/04 23:52:03;;;;;;;;;;;;;;;69.97;0.00;100801.97;5037772;27;20414;-62
2022/10/04 23:54:29;;;;;;;;;;;;;;;68.09;0.00;100792.25;5037825;27;20378;-63
2022/10/04 23:56:55;;;;;;;;;;;;;;;67.85;0.00;100795.66;5044024;27;19925;-62
2022/10/04 23:59:23;;;;;;;;;;;;;;;68.41;0.00;100796.59;5043158;27;19922;-62
